sensor_id;sensor_type;location;lat;lon;timestamp;temperature;humidity
75899;DHT22;64576;50.460;4.866;2023-04-24T00:01:47;7.85;85.65
75899;DHT22;64576;50.460;4.866;2023-04-24T00:04:12;7.83;85.77
75899;DHT22;64576;50.460;4.866;2023-04-24T00:06:41;7.86;85.75
75899;DHT22;64576;50.460;4.866;2023-04-24T00:09:08;7.83;85.87
75899;DHT22;64576;50.460;4.866;2023-04-24T00:11:35;7.83;85.82
75899;DHT22;64576;50.460;4.866;2023-04-24T00:14:01;7.79;86.18
75899;DHT22;64576;50.460;4.866;2023-04-24T00:16:26;7.80;86.19
75899;DHT22;64576;50.460;4.866;2023-04-24T00:18:51;7.82;86.30
75899;DHT22;64576;50.460;4.866;2023-04-24T00:21:21;7.82;86.30
75899;DHT22;64576;50.460;4.866;2023-04-24T00:23:47;7.82;86.44
75899;DHT22;64576;50.460;4.866;2023-04-24T00:26:12;7.79;86.54
75899;DHT22;64576;50.460;4.866;2023-04-24T00:28:38;7.79;86.45
75899;DHT22;64576;50.460;4.866;2023-04-24T00:31:04;7.79;86.80
75899;DHT22;64576;50.460;4.866;2023-04-24T00:33:29;7.80;86.44
75899;DHT22;64576;50.460;4.866;2023-04-24T00:35:55;7.75;86.52
75899;DHT22;64576;50.460;4.866;2023-04-24T00:38:20;7.78;86.94
75899;DHT22;64576;50.460;4.866;2023-04-24T00:40:47;7.75;86.66
75899;DHT22;64576;50.460;4.866;2023-04-24T00:43:13;7.75;86.86
75899;DHT22;64576;50.460;4.866;2023-04-24T00:45:38;7.68;86.92
75899;DHT22;64576;50.460;4.866;2023-04-24T00:48:04;7.69;87.12
75899;DHT22;64576;50.460;4.866;2023-04-24T00:50:30;7.65;86.97
75899;DHT22;64576;50.460;4.866;2023-04-24T00:52:55;7.62;87.08
75899;DHT22;64576;50.460;4.866;2023-04-24T00:55:21;7.65;87.52
75899;DHT22;64576;50.460;4.866;2023-04-24T00:57:46;7.62;87.05
75899;DHT22;64576;50.460;4.866;2023-04-24T01:00:13;7.62;87.19
75899;DHT22;64576;50.460;4.866;2023-04-24T01:02:41;7.63;87.35
75899;DHT22;64576;50.460;4.866;2023-04-24T01:05:12;7.56;87.45
75899;DHT22;64576;50.460;4.866;2023-04-24T01:07:39;7.54;87.52
75899;DHT22;64576;50.460;4.866;2023-04-24T01:10:07;7.58;87.48
75899;DHT22;64576;50.460;4.866;2023-04-24T01:12:33;7.56;87.56
75899;DHT22;64576;50.460;4.866;2023-04-24T01:14:58;7.56;87.48
75899;DHT22;64576;50.460;4.866;2023-04-24T01:17:24;7.58;87.50
75899;DHT22;64576;50.460;4.866;2023-04-24T01:19:50;7.56;87.68
75899;DHT22;64576;50.460;4.866;2023-04-24T01:22:19;7.56;87.73
75899;DHT22;64576;50.460;4.866;2023-04-24T01:24:45;7.55;87.78
75899;DHT22;64576;50.460;4.866;2023-04-24T01:27:12;7.54;87.85
75899;DHT22;64576;50.460;4.866;2023-04-24T01:29:37;7.52;87.81
75899;DHT22;64576;50.460;4.866;2023-04-24T01:32:03;7.51;88.00
75899;DHT22;64576;50.460;4.866;2023-04-24T01:34:30;7.51;87.97
75899;DHT22;64576;50.460;4.866;2023-04-24T01:36:55;7.48;88.28
75899;DHT22;64576;50.460;4.866;2023-04-24T01:39:21;7.41;88.84
75899;DHT22;64576;50.460;4.866;2023-04-24T01:41:48;7.24;90.33
75899;DHT22;64576;50.460;4.866;2023-04-24T01:44:15;7.03;91.68
75899;DHT22;64576;50.460;4.866;2023-04-24T01:46:41;6.94;92.49
75899;DHT22;64576;50.460;4.866;2023-04-24T01:49:06;6.87;93.56
75899;DHT22;64576;50.460;4.866;2023-04-24T01:51:32;6.77;94.31
75899;DHT22;64576;50.460;4.866;2023-04-24T01:53:57;6.72;95.08
75899;DHT22;64576;50.460;4.866;2023-04-24T01:56:23;6.65;95.73
75899;DHT22;64576;50.460;4.866;2023-04-24T01:58:50;6.64;96.22
75899;DHT22;64576;50.460;4.866;2023-04-24T02:01:20;6.62;96.23
75899;DHT22;64576;50.460;4.866;2023-04-24T02:03:46;6.61;96.47
75899;DHT22;64576;50.460;4.866;2023-04-24T02:06:11;6.59;96.02
75899;DHT22;64576;50.460;4.866;2023-04-24T02:08:37;6.61;96.00
75899;DHT22;64576;50.460;4.866;2023-04-24T02:11:02;6.64;95.97
75899;DHT22;64576;50.460;4.866;2023-04-24T02:13:28;6.64;95.62
75899;DHT22;64576;50.460;4.866;2023-04-24T02:15:53;6.65;95.87
75899;DHT22;64576;50.460;4.866;2023-04-24T02:18:19;6.64;95.79
75899;DHT22;64576;50.460;4.866;2023-04-24T02:20:45;6.62;95.62
75899;DHT22;64576;50.460;4.866;2023-04-24T02:23:10;6.59;95.61
75899;DHT22;64576;50.460;4.866;2023-04-24T02:25:36;6.59;95.42
75899;DHT22;64576;50.460;4.866;2023-04-24T02:28:01;6.59;95.58
75899;DHT22;64576;50.460;4.866;2023-04-24T02:30:27;6.61;95.54
75899;DHT22;64576;50.460;4.866;2023-04-24T02:32:52;6.61;95.18
75899;DHT22;64576;50.460;4.866;2023-04-24T02:35:18;6.64;95.18
75899;DHT22;64576;50.460;4.866;2023-04-24T02:37:44;6.62;95.37
75899;DHT22;64576;50.460;4.866;2023-04-24T02:40:09;6.59;95.29
75899;DHT22;64576;50.460;4.866;2023-04-24T02:42:35;6.65;95.26
75899;DHT22;64576;50.460;4.866;2023-04-24T02:45:00;6.68;94.80
75899;DHT22;64576;50.460;4.866;2023-04-24T02:47:26;6.66;94.72
75899;DHT22;64576;50.460;4.866;2023-04-24T02:49:51;6.66;94.58
75899;DHT22;64576;50.460;4.866;2023-04-24T02:52:16;6.66;94.78
75899;DHT22;64576;50.460;4.866;2023-04-24T02:54:42;6.65;94.97
75899;DHT22;64576;50.460;4.866;2023-04-24T02:57:08;6.65;94.70
75899;DHT22;64576;50.460;4.866;2023-04-24T02:59:33;6.64;94.56
75899;DHT22;64576;50.460;4.866;2023-04-24T03:01:59;6.69;94.89
75899;DHT22;64576;50.460;4.866;2023-04-24T03:04:24;6.69;94.40
75899;DHT22;64576;50.460;4.866;2023-04-24T03:06:50;6.68;94.36
75899;DHT22;64576;50.460;4.866;2023-04-24T03:09:18;6.69;94.49
75899;DHT22;64576;50.460;4.866;2023-04-24T03:11:44;6.69;94.50
75899;DHT22;64576;50.460;4.866;2023-04-24T03:14:10;6.69;94.57
75899;DHT22;64576;50.460;4.866;2023-04-24T03:16:35;6.71;94.65
75899;DHT22;64576;50.460;4.866;2023-04-24T03:19:00;6.69;94.50
75899;DHT22;64576;50.460;4.866;2023-04-24T03:21:26;6.66;94.88
75899;DHT22;64576;50.460;4.866;2023-04-24T03:23:51;6.62;94.92
75899;DHT22;64576;50.460;4.866;2023-04-24T03:26:17;6.61;94.96
75899;DHT22;64576;50.460;4.866;2023-04-24T03:28:42;6.65;94.74
75899;DHT22;64576;50.460;4.866;2023-04-24T03:31:08;6.56;95.38
75899;DHT22;64576;50.460;4.866;2023-04-24T03:33:33;6.50;95.99
75899;DHT22;64576;50.460;4.866;2023-04-24T03:35:58;6.46;95.83
75899;DHT22;64576;50.460;4.866;2023-04-24T03:38:24;6.52;96.12
75899;DHT22;64576;50.460;4.866;2023-04-24T03:40:49;6.52;95.98
75899;DHT22;64576;50.460;4.866;2023-04-24T03:43:15;6.50;95.83
75899;DHT22;64576;50.460;4.866;2023-04-24T03:45:40;6.52;95.70
75899;DHT22;64576;50.460;4.866;2023-04-24T03:48:05;6.55;95.48
75899;DHT22;64576;50.460;4.866;2023-04-24T03:50:31;6.50;95.94
75899;DHT22;64576;50.460;4.866;2023-04-24T03:52:56;6.52;96.18
75899;DHT22;64576;50.460;4.866;2023-04-24T03:55:22;6.50;96.27
75899;DHT22;64576;50.460;4.866;2023-04-24T03:57:47;6.48;96.34
75899;DHT22;64576;50.460;4.866;2023-04-24T04:00:13;6.49;97.14
75899;DHT22;64576;50.460;4.866;2023-04-24T04:02:39;6.46;96.89
75899;DHT22;64576;50.460;4.866;2023-04-24T04:05:04;6.46;97.01
75899;DHT22;64576;50.460;4.866;2023-04-24T04:07:30;6.48;97.10
75899;DHT22;64576;50.460;4.866;2023-04-24T04:09:55;6.49;97.00
75899;DHT22;64576;50.460;4.866;2023-04-24T04:12:21;6.49;97.02
75899;DHT22;64576;50.460;4.866;2023-04-24T04:14:46;6.49;96.89
75899;DHT22;64576;50.460;4.866;2023-04-24T04:17:11;6.50;97.02
75899;DHT22;64576;50.460;4.866;2023-04-24T04:19:37;6.55;96.80
75899;DHT22;64576;50.460;4.866;2023-04-24T04:22:02;6.58;96.73
75899;DHT22;64576;50.460;4.866;2023-04-24T04:24:28;6.59;96.53
75899;DHT22;64576;50.460;4.866;2023-04-24T04:26:53;6.62;96.44
75899;DHT22;64576;50.460;4.866;2023-04-24T04:29:22;6.62;96.74
75899;DHT22;64576;50.460;4.866;2023-04-24T04:31:47;6.68;96.54
75899;DHT22;64576;50.460;4.866;2023-04-24T04:34:13;6.73;96.29
75899;DHT22;64576;50.460;4.866;2023-04-24T04:36:40;6.72;96.71
75899;DHT22;64576;50.460;4.866;2023-04-24T04:39:06;6.71;96.90
75899;DHT22;64576;50.460;4.866;2023-04-24T04:41:32;6.69;97.14
75899;DHT22;64576;50.460;4.866;2023-04-24T04:44:00;6.66;97.42
75899;DHT22;64576;50.460;4.866;2023-04-24T04:46:25;6.69;97.81
75899;DHT22;64576;50.460;4.866;2023-04-24T04:48:52;6.71;97.98
75899;DHT22;64576;50.460;4.866;2023-04-24T04:51:17;6.72;97.96
75899;DHT22;64576;50.460;4.866;2023-04-24T04:53:43;6.71;98.04
75899;DHT22;64576;50.460;4.866;2023-04-24T04:56:08;6.73;97.90
75899;DHT22;64576;50.460;4.866;2023-04-24T04:58:34;6.75;98.08
75899;DHT22;64576;50.460;4.866;2023-04-24T05:00:59;6.76;98.14
75899;DHT22;64576;50.460;4.866;2023-04-24T05:03:24;6.76;98.21
75899;DHT22;64576;50.460;4.866;2023-04-24T05:05:50;6.76;98.28
75899;DHT22;64576;50.460;4.866;2023-04-24T05:08:16;6.77;98.24
75899;DHT22;64576;50.460;4.866;2023-04-24T05:10:41;6.77;98.49
75899;DHT22;64576;50.460;4.866;2023-04-24T05:13:06;6.76;98.99
75899;DHT22;64576;50.460;4.866;2023-04-24T05:15:32;6.80;99.27
75899;DHT22;64576;50.460;4.866;2023-04-24T05:17:57;6.76;99.49
75899;DHT22;64576;50.460;4.866;2023-04-24T05:20:23;6.79;99.64
75899;DHT22;64576;50.460;4.866;2023-04-24T05:22:48;6.79;99.84
75899;DHT22;64576;50.460;4.866;2023-04-24T05:25:14;6.83;99.74
75899;DHT22;64576;50.460;4.866;2023-04-24T05:27:40;6.83;99.99
75899;DHT22;64576;50.460;4.866;2023-04-24T05:30:06;6.82;99.99
75899;DHT22;64576;50.460;4.866;2023-04-24T05:32:31;6.85;99.99
75899;DHT22;64576;50.460;4.866;2023-04-24T05:34:57;6.85;99.99
75899;DHT22;64576;50.460;4.866;2023-04-24T05:37:22;6.86;99.99
75899;DHT22;64576;50.460;4.866;2023-04-24T05:39:47;6.85;99.99
75899;DHT22;64576;50.460;4.866;2023-04-24T05:42:13;6.85;99.73
75899;DHT22;64576;50.460;4.866;2023-04-24T05:44:38;6.86;99.64
75899;DHT22;64576;50.460;4.866;2023-04-24T05:47:04;6.85;99.69
75899;DHT22;64576;50.460;4.866;2023-04-24T05:49:29;6.83;99.91
75899;DHT22;64576;50.460;4.866;2023-04-24T05:51:54;6.80;99.99
75899;DHT22;64576;50.460;4.866;2023-04-24T05:54:20;6.83;99.85
75899;DHT22;64576;50.460;4.866;2023-04-24T05:56:45;6.82;99.81
75899;DHT22;64576;50.460;4.866;2023-04-24T05:59:11;6.80;99.30
75899;DHT22;64576;50.460;4.866;2023-04-24T06:01:36;6.86;99.34
75899;DHT22;64576;50.460;4.866;2023-04-24T06:04:03;6.86;99.35
75899;DHT22;64576;50.460;4.866;2023-04-24T06:06:28;6.90;99.52
75899;DHT22;64576;50.460;4.866;2023-04-24T06:08:54;6.94;99.51
75899;DHT22;64576;50.460;4.866;2023-04-24T06:11:19;6.90;98.72
75899;DHT22;64576;50.460;4.866;2023-04-24T06:13:45;6.92;98.57
75899;DHT22;64576;50.460;4.866;2023-04-24T06:16:10;6.89;97.91
75899;DHT22;64576;50.460;4.866;2023-04-24T06:18:36;6.87;97.36
75899;DHT22;64576;50.460;4.866;2023-04-24T06:21:01;6.92;97.70
75899;DHT22;64576;50.460;4.866;2023-04-24T06:23:27;6.92;97.17
75899;DHT22;64576;50.460;4.866;2023-04-24T06:25:52;7.00;96.89
75899;DHT22;64576;50.460;4.866;2023-04-24T06:28:18;7.03;96.25
75899;DHT22;64576;50.460;4.866;2023-04-24T06:30:43;7.15;96.29
75899;DHT22;64576;50.460;4.866;2023-04-24T06:33:09;7.18;96.10
75899;DHT22;64576;50.460;4.866;2023-04-24T06:35:35;7.21;95.65
75899;DHT22;64576;50.460;4.866;2023-04-24T06:38:01;7.17;95.23
75899;DHT22;64576;50.460;4.866;2023-04-24T06:40:26;7.13;95.03
75899;DHT22;64576;50.460;4.866;2023-04-24T06:42:51;7.18;95.14
75899;DHT22;64576;50.460;4.866;2023-04-24T06:45:18;7.17;95.21
75899;DHT22;64576;50.460;4.866;2023-04-24T06:47:43;7.18;94.88
75899;DHT22;64576;50.460;4.866;2023-04-24T06:50:09;7.31;94.27
75899;DHT22;64576;50.460;4.866;2023-04-24T06:52:34;7.32;94.00
75899;DHT22;64576;50.460;4.866;2023-04-24T06:55:04;7.30;94.44
75899;DHT22;64576;50.460;4.866;2023-04-24T06:57:30;7.25;94.85
75899;DHT22;64576;50.460;4.866;2023-04-24T06:59:56;7.28;95.26
75899;DHT22;64576;50.460;4.866;2023-04-24T07:02:22;7.21;95.10
75899;DHT22;64576;50.460;4.866;2023-04-24T07:04:47;7.18;95.49
75899;DHT22;64576;50.460;4.866;2023-04-24T07:07:13;7.18;95.46
75899;DHT22;64576;50.460;4.866;2023-04-24T07:09:39;7.17;95.09
75899;DHT22;64576;50.460;4.866;2023-04-24T07:12:08;7.20;95.36
75899;DHT22;64576;50.460;4.866;2023-04-24T07:14:33;7.20;95.58
75899;DHT22;64576;50.460;4.866;2023-04-24T07:16:58;7.38;95.54
75899;DHT22;64576;50.460;4.866;2023-04-24T07:19:24;7.40;94.98
75899;DHT22;64576;50.460;4.866;2023-04-24T07:21:52;7.41;94.91
75899;DHT22;64576;50.460;4.866;2023-04-24T07:24:20;7.45;94.43
75899;DHT22;64576;50.460;4.866;2023-04-24T07:26:45;7.45;94.18
75899;DHT22;64576;50.460;4.866;2023-04-24T07:29:12;7.45;94.41
75899;DHT22;64576;50.460;4.866;2023-04-24T07:31:38;7.54;94.29
75899;DHT22;64576;50.460;4.866;2023-04-24T07:34:04;7.49;94.05
75899;DHT22;64576;50.460;4.866;2023-04-24T07:36:29;7.61;93.92
75899;DHT22;64576;50.460;4.866;2023-04-24T07:38:55;7.62;92.99
75899;DHT22;64576;50.460;4.866;2023-04-24T07:41:21;7.89;92.60
75899;DHT22;64576;50.460;4.866;2023-04-24T07:43:47;8.23;91.96
75899;DHT22;64576;50.460;4.866;2023-04-24T07:46:13;7.96;91.41
75899;DHT22;64576;50.460;4.866;2023-04-24T07:48:38;7.89;91.99
75899;DHT22;64576;50.460;4.866;2023-04-24T07:51:04;7.79;92.47
75899;DHT22;64576;50.460;4.866;2023-04-24T07:53:29;8.11;91.99
75899;DHT22;64576;50.460;4.866;2023-04-24T07:55:55;8.18;91.39
75899;DHT22;64576;50.460;4.866;2023-04-24T07:58:21;8.03;91.37
75899;DHT22;64576;50.460;4.866;2023-04-24T08:00:46;7.90;90.67
75899;DHT22;64576;50.460;4.866;2023-04-24T08:03:12;7.90;92.16
75899;DHT22;64576;50.460;4.866;2023-04-24T08:05:38;7.90;89.54
75899;DHT22;64576;50.460;4.866;2023-04-24T08:08:03;8.24;90.34
75899;DHT22;64576;50.460;4.866;2023-04-24T08:10:29;8.21;89.64
75899;DHT22;64576;50.460;4.866;2023-04-24T08:12:54;8.24;89.17
75899;DHT22;64576;50.460;4.866;2023-04-24T08:15:20;8.59;89.14
75899;DHT22;64576;50.460;4.866;2023-04-24T08:17:46;8.28;87.91
75899;DHT22;64576;50.460;4.866;2023-04-24T08:20:12;8.25;89.44
75899;DHT22;64576;50.460;4.866;2023-04-24T08:22:41;8.18;90.23
75899;DHT22;64576;50.460;4.866;2023-04-24T08:25:07;8.14;89.70
75899;DHT22;64576;50.460;4.866;2023-04-24T08:27:33;8.17;89.66
75899;DHT22;64576;50.460;4.866;2023-04-24T08:29:58;8.11;89.51
75899;DHT22;64576;50.460;4.866;2023-04-24T08:32:25;8.08;89.43
75899;DHT22;64576;50.460;4.866;2023-04-24T08:34:54;8.30;89.25
75899;DHT22;64576;50.460;4.866;2023-04-24T08:37:21;8.58;87.48
75899;DHT22;64576;50.460;4.866;2023-04-24T08:39:47;8.62;86.26
75899;DHT22;64576;50.460;4.866;2023-04-24T08:42:12;8.77;86.00
75899;DHT22;64576;50.460;4.866;2023-04-24T08:44:38;8.66;86.77
75899;DHT22;64576;50.460;4.866;2023-04-24T08:47:04;8.63;86.23
75899;DHT22;64576;50.460;4.866;2023-04-24T08:49:30;8.77;85.45
75899;DHT22;64576;50.460;4.866;2023-04-24T08:51:56;9.38;84.51
75899;DHT22;64576;50.460;4.866;2023-04-24T08:54:21;9.56;82.64
75899;DHT22;64576;50.460;4.866;2023-04-24T08:56:48;9.76;82.02
75899;DHT22;64576;50.460;4.866;2023-04-24T08:59:15;9.93;80.40
75899;DHT22;64576;50.460;4.866;2023-04-24T09:01:41;9.66;81.89
75899;DHT22;64576;50.460;4.866;2023-04-24T09:04:08;10.44;80.36
75899;DHT22;64576;50.460;4.866;2023-04-24T09:06:36;11.19;77.61
75899;DHT22;64576;50.460;4.866;2023-04-24T09:09:01;10.06;79.28
75899;DHT22;64576;50.460;4.866;2023-04-24T09:11:30;9.90;78.82
75899;DHT22;64576;50.460;4.866;2023-04-24T09:13:56;9.72;79.56
75899;DHT22;64576;50.460;4.866;2023-04-24T09:16:21;10.17;78.73
75899;DHT22;64576;50.460;4.866;2023-04-24T09:18:49;12.16;72.68
75899;DHT22;64576;50.460;4.866;2023-04-24T09:21:15;11.83;73.67
75899;DHT22;64576;50.460;4.866;2023-04-24T09:23:41;12.09;73.83
75899;DHT22;64576;50.460;4.866;2023-04-24T09:26:09;11.85;71.72
75899;DHT22;64576;50.460;4.866;2023-04-24T09:28:40;11.58;73.64
75899;DHT22;64576;50.460;4.866;2023-04-24T09:31:14;11.12;74.01
75899;DHT22;64576;50.460;4.866;2023-04-24T09:33:54;12.24;68.29
75899;DHT22;64576;50.460;4.866;2023-04-24T09:36:27;13.10;67.04
75899;DHT22;64576;50.460;4.866;2023-04-24T09:38:57;11.93;70.09
75899;DHT22;64576;50.460;4.866;2023-04-24T09:41:23;10.83;71.99
75899;DHT22;64576;50.460;4.866;2023-04-24T09:43:48;10.40;75.08
75899;DHT22;64576;50.460;4.866;2023-04-24T09:46:13;11.16;74.25
75899;DHT22;64576;50.460;4.866;2023-04-24T09:48:39;13.88;66.94
75899;DHT22;64576;50.460;4.866;2023-04-24T09:51:05;12.57;68.92
75899;DHT22;64576;50.460;4.866;2023-04-24T09:53:36;11.72;69.69
75899;DHT22;64576;50.460;4.866;2023-04-24T09:56:06;11.98;69.81
75899;DHT22;64576;50.460;4.866;2023-04-24T09:58:32;12.64;68.58
75899;DHT22;64576;50.460;4.866;2023-04-24T10:00:57;12.02;67.10
75899;DHT22;64576;50.460;4.866;2023-04-24T10:03:29;12.69;67.76
75899;DHT22;64576;50.460;4.866;2023-04-24T10:05:58;13.03;64.01
75899;DHT22;64576;50.460;4.866;2023-04-24T10:08:24;12.02;66.72
75899;DHT22;64576;50.460;4.866;2023-04-24T10:10:50;11.48;68.26
75899;DHT22;64576;50.460;4.866;2023-04-24T10:13:15;11.23;70.33
75899;DHT22;64576;50.460;4.866;2023-04-24T10:15:41;10.88;70.43
75899;DHT22;64576;50.460;4.866;2023-04-24T10:18:08;10.82;71.85
75899;DHT22;64576;50.460;4.866;2023-04-24T10:20:35;10.36;71.22
75899;DHT22;64576;50.460;4.866;2023-04-24T10:23:02;10.21;73.01
75899;DHT22;64576;50.460;4.866;2023-04-24T10:25:29;10.04;74.56
75899;DHT22;64576;50.460;4.866;2023-04-24T10:27:57;9.90;75.69
75899;DHT22;64576;50.460;4.866;2023-04-24T10:30:26;9.63;76.45
75899;DHT22;64576;50.460;4.866;2023-04-24T10:32:51;9.62;78.44
75899;DHT22;64576;50.460;4.866;2023-04-24T10:35:17;10.29;79.68
75899;DHT22;64576;50.460;4.866;2023-04-24T10:37:50;11.10;75.49
75899;DHT22;64576;50.460;4.866;2023-04-24T10:40:19;11.86;72.84
75899;DHT22;64576;50.460;4.866;2023-04-24T10:42:52;12.38;69.11
75899;DHT22;64576;50.460;4.866;2023-04-24T10:45:21;13.42;65.45
75899;DHT22;64576;50.460;4.866;2023-04-24T10:50:18;12.69;67.55
75899;DHT22;64576;50.460;4.866;2023-04-24T10:52:48;11.68;69.21
75899;DHT22;64576;50.460;4.866;2023-04-24T10:55:16;10.96;71.08
75899;DHT22;64576;50.460;4.866;2023-04-24T10:58:04;10.67;71.14
75899;DHT22;64576;50.460;4.866;2023-04-24T11:00:29;10.29;72.47
75899;DHT22;64576;50.460;4.866;2023-04-24T11:02:55;10.23;71.88
75899;DHT22;64576;50.460;4.866;2023-04-24T11:05:21;10.52;71.79
75899;DHT22;64576;50.460;4.866;2023-04-24T11:10:44;12.54;66.70
75899;DHT22;64576;50.460;4.866;2023-04-24T11:13:10;11.90;67.59
75899;DHT22;64576;50.460;4.866;2023-04-24T11:15:41;11.38;69.24
75899;DHT22;64576;50.460;4.866;2023-04-24T11:18:13;10.89;69.68
75899;DHT22;64576;50.460;4.866;2023-04-24T11:20:42;10.67;71.39
75899;DHT22;64576;50.460;4.866;2023-04-24T11:23:07;10.18;72.67
75899;DHT22;64576;50.460;4.866;2023-04-24T11:25:35;10.10;75.34
75899;DHT22;64576;50.460;4.866;2023-04-24T11:28:05;9.97;78.11
75899;DHT22;64576;50.460;4.866;2023-04-24T11:30:31;10.52;77.43
75899;DHT22;64576;50.460;4.866;2023-04-24T11:33:03;12.75;70.10
75899;DHT22;64576;50.460;4.866;2023-04-24T11:35:29;14.40;65.09
75899;DHT22;64576;50.460;4.866;2023-04-24T11:37:56;16.29;60.40
75899;DHT22;64576;50.460;4.866;2023-04-24T11:40:22;16.01;59.07
75899;DHT22;64576;50.460;4.866;2023-04-24T11:42:49;15.76;60.29
75899;DHT22;64576;50.460;4.866;2023-04-24T11:45:25;14.11;62.50
75899;DHT22;64576;50.460;4.866;2023-04-24T11:47:51;12.95;66.30
75899;DHT22;64576;50.460;4.866;2023-04-24T11:50:18;12.00;69.31
75899;DHT22;64576;50.460;4.866;2023-04-24T11:52:46;11.58;70.68
75899;DHT22;64576;50.460;4.866;2023-04-24T11:57:42;12.40;68.98
75899;DHT22;64576;50.460;4.866;2023-04-24T12:00:15;14.06;63.95
75899;DHT22;64576;50.460;4.866;2023-04-24T12:02:41;14.71;61.85
75899;DHT22;64576;50.460;4.866;2023-04-24T12:05:06;12.61;65.99
75899;DHT22;64576;50.460;4.866;2023-04-24T12:07:40;12.44;67.60
75899;DHT22;64576;50.460;4.866;2023-04-24T12:10:08;11.93;69.46
75899;DHT22;64576;50.460;4.866;2023-04-24T12:12:34;11.20;75.39
75899;DHT22;64576;50.460;4.866;2023-04-24T12:15:00;10.48;76.20
75899;DHT22;64576;50.460;4.866;2023-04-24T12:17:31;10.55;77.40
75899;DHT22;64576;50.460;4.866;2023-04-24T12:19:58;10.58;75.94
75899;DHT22;64576;50.460;4.866;2023-04-24T12:22:24;10.55;73.50
75899;DHT22;64576;50.460;4.866;2023-04-24T12:25:03;10.65;74.67
75899;DHT22;64576;50.460;4.866;2023-04-24T12:27:32;10.78;73.08
75899;DHT22;64576;50.460;4.866;2023-04-24T12:30:03;11.81;73.16
75899;DHT22;64576;50.460;4.866;2023-04-24T12:32:30;13.77;66.01
75899;DHT22;64576;50.460;4.866;2023-04-24T12:34:56;15.11;65.69
75899;DHT22;64576;50.460;4.866;2023-04-24T12:37:25;14.74;61.88
75899;DHT22;64576;50.460;4.866;2023-04-24T12:40:08;15.54;59.59
75899;DHT22;64576;50.460;4.866;2023-04-24T12:42:35;15.87;56.53
75899;DHT22;64576;50.460;4.866;2023-04-24T12:45:03;15.39;58.55
75899;DHT22;64576;50.460;4.866;2023-04-24T12:47:30;16.90;57.51
75899;DHT22;64576;50.460;4.866;2023-04-24T12:49:56;16.08;56.84
75899;DHT22;64576;50.460;4.866;2023-04-24T12:52:30;15.04;60.01
75899;DHT22;64576;50.460;4.866;2023-04-24T12:54:58;14.66;62.39
75899;DHT22;64576;50.460;4.866;2023-04-24T12:57:24;13.51;64.54
75899;DHT22;64576;50.460;4.866;2023-04-24T12:59:51;13.29;65.22
75899;DHT22;64576;50.460;4.866;2023-04-24T13:02:17;12.64;66.37
75899;DHT22;64576;50.460;4.866;2023-04-24T13:04:46;12.33;67.77
75899;DHT22;64576;50.460;4.866;2023-04-24T13:07:15;11.93;71.25
75899;DHT22;64576;50.460;4.866;2023-04-24T13:09:42;11.37;71.23
75899;DHT22;64576;50.460;4.866;2023-04-24T13:12:08;11.13;72.03
75899;DHT22;64576;50.460;4.866;2023-04-24T13:14:34;10.95;72.63
75899;DHT22;64576;50.460;4.866;2023-04-24T13:17:00;10.93;72.92
75899;DHT22;64576;50.460;4.866;2023-04-24T13:19:26;10.76;73.33
75899;DHT22;64576;50.460;4.866;2023-04-24T13:21:53;10.64;74.94
75899;DHT22;64576;50.460;4.866;2023-04-24T13:24:20;10.41;75.71
75899;DHT22;64576;50.460;4.866;2023-04-24T13:26:46;10.47;77.12
75899;DHT22;64576;50.460;4.866;2023-04-24T13:29:11;10.11;76.39
75899;DHT22;64576;50.460;4.866;2023-04-24T13:31:36;9.97;77.30
75899;DHT22;64576;50.460;4.866;2023-04-24T13:34:02;9.92;78.46
75899;DHT22;64576;50.460;4.866;2023-04-24T13:36:28;9.54;80.07
75899;DHT22;64576;50.460;4.866;2023-04-24T13:38:54;8.86;84.34
75899;DHT22;64576;50.460;4.866;2023-04-24T13:41:19;8.51;88.13
75899;DHT22;64576;50.460;4.866;2023-04-24T13:43:44;8.23;84.91
75899;DHT22;64576;50.460;4.866;2023-04-24T13:46:10;8.17;85.58
75899;DHT22;64576;50.460;4.866;2023-04-24T13:48:35;8.08;86.68
75899;DHT22;64576;50.460;4.866;2023-04-24T13:51:01;8.13;89.82
75899;DHT22;64576;50.460;4.866;2023-04-24T13:53:26;8.13;91.01
75899;DHT22;64576;50.460;4.866;2023-04-24T13:55:52;8.13;91.56
75899;DHT22;64576;50.460;4.866;2023-04-24T13:58:17;8.14;91.34
75899;DHT22;64576;50.460;4.866;2023-04-24T14:00:42;8.14;90.60
75899;DHT22;64576;50.460;4.866;2023-04-24T14:03:08;8.18;90.53
75899;DHT22;64576;50.460;4.866;2023-04-24T14:05:33;8.16;91.14
75899;DHT22;64576;50.460;4.866;2023-04-24T14:07:59;8.16;91.62
75899;DHT22;64576;50.460;4.866;2023-04-24T14:10:24;8.11;92.01
75899;DHT22;64576;50.460;4.866;2023-04-24T14:12:51;8.10;92.28
75899;DHT22;64576;50.460;4.866;2023-04-24T14:15:16;8.06;92.59
75899;DHT22;64576;50.460;4.866;2023-04-24T14:17:42;8.07;92.85
75899;DHT22;64576;50.460;4.866;2023-04-24T14:20:07;8.16;92.74
75899;DHT22;64576;50.460;4.866;2023-04-24T14:22:34;8.20;92.98
75899;DHT22;64576;50.460;4.866;2023-04-24T14:24:59;8.27;92.43
75899;DHT22;64576;50.460;4.866;2023-04-24T14:27:25;8.44;92.57
75899;DHT22;64576;50.460;4.866;2023-04-24T14:29:51;8.46;92.18
75899;DHT22;64576;50.460;4.866;2023-04-24T14:32:17;8.51;92.22
75899;DHT22;64576;50.460;4.866;2023-04-24T14:34:42;8.58;92.07
75899;DHT22;64576;50.460;4.866;2023-04-24T14:37:08;8.72;91.62
75899;DHT22;64576;50.460;4.866;2023-04-24T14:39:36;9.07;90.95
75899;DHT22;64576;50.460;4.866;2023-04-24T14:42:01;9.92;87.78
75899;DHT22;64576;50.460;4.866;2023-04-24T14:44:27;10.88;84.31
75899;DHT22;64576;50.460;4.866;2023-04-24T14:46:52;11.68;81.60
75899;DHT22;64576;50.460;4.866;2023-04-24T14:49:18;11.50;82.26
75899;DHT22;64576;50.460;4.866;2023-04-24T14:51:43;13.50;77.09
75899;DHT22;64576;50.460;4.866;2023-04-24T14:54:09;13.67;73.44
75899;DHT22;64576;50.460;4.866;2023-04-24T14:56:34;12.75;76.33
75899;DHT22;64576;50.460;4.866;2023-04-24T14:59:00;13.64;78.15
75899;DHT22;64576;50.460;4.866;2023-04-24T15:01:26;13.84;74.82
75899;DHT22;64576;50.460;4.866;2023-04-24T15:03:51;14.85;70.25
75899;DHT22;64576;50.460;4.866;2023-04-24T15:06:16;12.23;76.02
75899;DHT22;64576;50.460;4.866;2023-04-24T15:08:42;13.13;76.20
75899;DHT22;64576;50.460;4.866;2023-04-24T15:11:09;13.86;72.09
75899;DHT22;64576;50.460;4.866;2023-04-24T15:13:34;12.71;74.26
75899;DHT22;64576;50.460;4.866;2023-04-24T15:16:00;12.12;75.79
75899;DHT22;64576;50.460;4.866;2023-04-24T15:18:25;11.83;77.42
75899;DHT22;64576;50.460;4.866;2023-04-24T15:20:52;11.20;76.87
75899;DHT22;64576;50.460;4.866;2023-04-24T15:23:18;10.89;79.08
75899;DHT22;64576;50.460;4.866;2023-04-24T15:25:43;10.83;78.74
75899;DHT22;64576;50.460;4.866;2023-04-24T15:28:09;10.79;78.90
75899;DHT22;64576;50.460;4.866;2023-04-24T15:30:35;11.09;79.19
75899;DHT22;64576;50.460;4.866;2023-04-24T15:33:01;11.00;77.82
75899;DHT22;64576;50.460;4.866;2023-04-24T15:35:27;10.86;77.38
75899;DHT22;64576;50.460;4.866;2023-04-24T15:37:52;11.14;78.51
75899;DHT22;64576;50.460;4.866;2023-04-24T15:40:17;10.91;77.06
75899;DHT22;64576;50.460;4.866;2023-04-24T15:42:43;10.65;77.57